Time;durP1;ratioP1;P1;durP2;ratioP2;P2;SDS_P1;SDS_P2;PMS_P1;PMS_P2;Temp;Humidity;BMP_temperature;BMP_pressure;BME280_temperature;BME280_humidity;BME280_pressure;Samples;Min_cycle;Max_cycle;Signal;HPM_P1;HPM_P2
2022/09/29 00:01:50;;;;;;;32.58;24.67;;;;;;;5.49;100.00;99933.28;5344864;27;20047;-78
2022/09/29 00:04:22;;;;;;;31.38;24.15;;;;;;;5.31;100.00;99916.31;5346054;27;20039;-78
2022/09/29 00:06:53;;;;;;;32.67;23.90;;;;;;;5.39;100.00;99929.75;5345470;27;20073;-77
2022/09/29 00:09:24;;;;;;;33.60;24.60;;;;;;;5.40;100.00;99934.06;5346985;27;20030;-78
2022/09/29 00:11:56;;;;;;;35.10;24.38;;;;;;;5.37;100.00;99936.16;5346289;27;20054;-78
2022/09/29 00:14:27;;;;;;;31.45;24.52;;;;;;;5.35;100.00;99930.97;5346903;27;20024;-78
2022/09/29 00:16:58;;;;;;;32.33;23.90;;;;;;;5.35;100.00;99933.63;5346247;27;20023;-78
2022/09/29 00:19:32;;;;;;;59.47;18.38;;;;;;;5.17;100.00;99940.47;5325982;27;20757;-78
2022/09/29 00:22:03;;;;;;;28.02;20.50;;;;;;;5.44;100.00;99930.19;5331629;27;20036;-78
2022/09/29 00:24:35;;;;;;;27.33;22.48;;;;;;;5.38;100.00;99933.38;5328436;27;20100;-78
2022/09/29 00:27:06;;;;;;;28.75;22.30;;;;;;;5.36;100.00;99927.34;5345001;27;20030;-78
2022/09/29 00:29:37;;;;;;;35.80;25.05;;;;;;;5.24;100.00;99925.75;5347876;27;20046;-78
2022/09/29 00:32:09;;;;;;;34.60;24.77;;;;;;;5.02;100.00;99924.09;5340501;27;20031;-78
2022/09/29 00:34:40;;;;;;;29.83;22.25;;;;;;;4.93;100.00;99931.00;5327270;27;20024;-79
2022/09/29 00:37:12;;;;;;;26.50;19.80;;;;;;;4.77;100.00;99938.50;5344518;27;20020;-79
2022/09/29 00:39:43;;;;;;;29.88;21.20;;;;;;;4.91;100.00;99930.28;5346075;27;20034;-79
2022/09/29 00:42:18;;;;;;;27.92;21.30;;;;;;;4.97;100.00;99924.47;5344045;27;20036;-78
2022/09/29 00:45:12;;;;;;;107.20;26.17;;;;;;;4.79;100.00;99928.69;5346549;27;20039;-78
2022/09/29 00:47:49;;;;;;;30.65;23.50;;;;;;;5.04;100.00;99925.63;5325679;27;20026;-78
2022/09/29 00:50:40;;;;;;;;;;;;;;;4.92;100.00;99935.41;5346797;27;20393;-78
2022/09/29 00:53:13;;;;;;;32.08;22.55;;;;;;;5.08;100.00;99928.84;5344266;27;19915;-78
2022/09/29 00:55:55;;;;;;;33.20;25.45;;;;;;;5.02;100.00;99932.03;5342594;27;20834;-79
2022/09/29 00:58:33;;;;;;;33.65;23.10;;;;;;;5.03;100.00;99934.56;5346014;27;20381;-79
2022/09/29 01:01:05;;;;;;;32.88;21.45;;;;;;;5.01;100.00;99930.34;5345632;27;20030;-78
2022/09/29 01:03:45;;;;;;;39.85;27.33;;;;;;;4.98;100.00;99928.81;5343171;27;20035;-79
2022/09/29 01:06:26;;;;;;;34.60;25.65;;;;;;;4.87;100.00;99924.44;5345143;27;20058;-79
2022/09/29 01:09:05;;;;;;;41.83;26.15;;;;;;;4.78;100.00;99922.53;5344681;27;20102;-79
2022/09/29 01:11:37;;;;;;;35.72;26.83;;;;;;;4.67;100.00;99919.94;5327848;27;20400;-79
2022/09/29 01:14:09;;;;;;;162.68;27.05;;;;;;;4.38;100.00;99907.31;5343201;27;20029;-78
2022/09/29 01:16:41;;;;;;;29.20;19.15;;;;;;;4.52;100.00;99922.03;5344482;27;20024;-79
2022/09/29 01:19:22;;;;;;;87.68;25.88;;;;;;;4.55;100.00;99922.63;5344617;27;20031;-79
2022/09/29 01:22:19;;;;;;;37.10;26.10;;;;;;;4.56;100.00;99928.78;5335879;27;20032;-79
2022/09/29 01:24:57;;;;;;;35.22;24.70;;;;;;;4.52;100.00;99924.69;5332748;27;20051;-78
2022/09/29 01:27:50;;;;;;;36.00;25.38;;;;;;;4.61;100.00;99918.66;5342803;27;20028;-78
2022/09/29 01:30:36;;;;;;;33.08;25.77;;;;;;;4.62;100.00;99930.06;5345866;27;20077;-79
2022/09/29 01:33:53;;;;;;;32.40;23.80;;;;;;;4.71;100.00;99934.56;5344425;27;20050;-79
2022/09/29 01:36:40;;;;;;;42.75;27.58;;;;;;;4.70;100.00;99931.09;5343344;27;20532;-78
2022/09/29 01:39:29;;;;;;;36.10;26.42;;;;;;;4.80;100.00;99933.81;5325490;27;20306;-79
2022/09/29 01:42:03;;;;;;;37.05;25.48;;;;;;;4.75;100.00;99933.34;5344130;27;20123;-79
2022/09/29 01:44:56;;;;;;;84.97;28.73;;;;;;;4.54;100.00;99928.03;5325610;27;20118;-79
2022/09/29 01:47:36;;;;;;;32.13;22.48;;;;;;;4.57;100.00;99929.59;5324597;27;20116;-79
2022/09/29 01:50:24;;;;;;;34.25;25.30;;;;;;;4.54;100.00;99928.03;5316183;27;20031;-79
2022/09/29 01:53:01;;;;;;;41.38;28.92;;;;;;;4.64;100.00;99933.41;5343159;27;20117;-78
2022/09/29 01:55:34;;;;;;;;;;;;;;;4.56;100.00;99936.69;5346191;27;20020;-78
2022/09/29 01:58:11;;;;;;;41.53;27.58;;;;;;;4.59;100.00;99935.59;5335591;27;20411;-79
2022/09/29 02:00:57;;;;;;;35.50;24.52;;;;;;;4.64;100.00;99930.75;5325522;27;20529;-79
2022/09/29 02:03:36;;;;;;;35.92;25.27;;;;;;;4.53;100.00;99935.13;5342705;27;20040;-78
2022/09/29 02:06:22;;;;;;;34.67;25.20;;;;;;;4.58;100.00;99936.56;5345178;27;20032;-79
2022/09/29 02:08:57;;;;;;;37.22;24.52;;;;;;;4.65;100.00;99932.44;5342134;27;20031;-78
2022/09/29 02:11:32;;;;;;;36.75;25.02;;;;;;;4.61;100.00;99936.28;5345801;27;20393;-79
2022/09/29 02:14:09;;;;;;;44.88;28.40;;;;;;;4.42;100.00;99929.91;5343729;27;20427;-79
2022/09/29 02:16:47;;;;;;;174.35;33.65;;;;;;;4.24;100.00;99928.72;5343118;27;20035;-79
2022/09/29 02:19:23;;;;;;;41.28;27.83;;;;;;;4.35;100.00;99937.47;5344970;27;20020;-79
2022/09/29 02:21:55;;;;;;;42.92;29.13;;;;;;;4.34;100.00;99935.78;5342826;27;20039;-78
2022/09/29 02:24:26;;;;;;;45.42;29.20;;;;;;;4.34;100.00;99934.94;5342553;27;20073;-79
2022/09/29 02:26:58;;;;;;;46.50;29.58;;;;;;;4.40;100.00;99937.09;5345487;27;20108;-79
2022/09/29 02:29:31;;;;;;;46.42;32.28;;;;;;;4.39;100.00;99931.94;5343161;27;20084;-79
2022/09/29 02:32:06;;;;;;;46.70;31.70;;;;;;;4.45;100.00;99937.56;5333064;27;20016;-79
2022/09/29 02:34:42;;;;;;;49.17;32.17;;;;;;;4.38;100.00;99930.25;5339583;27;20498;-79
2022/09/29 02:37:31;;;;;;;52.53;32.90;;;;;;;4.43;100.00;99936.00;5335786;27;20024;-79
2022/09/29 02:40:09;;;;;;;50.25;32.28;;;;;;;4.42;100.00;99934.31;5321964;27;20019;-79
2022/09/29 02:43:18;;;;;;;48.58;31.70;;;;;;;4.41;100.00;99930.84;5344974;27;20490;-79
2022/09/29 02:46:11;;;;;;;42.42;30.27;;;;;;;4.37;100.00;99937.34;5334650;27;20032;-79
2022/09/29 02:49:07;;;;;;;48.78;31.73;;;;;;;4.15;100.00;99928.53;5325034;27;20081;-79
2022/09/29 02:51:53;;;;;;;47.70;30.83;;;;;;;4.12;100.00;99938.47;5344522;27;20030;-79
2022/09/29 02:54:24;;;;;;;45.80;30.65;;;;;;;4.08;100.00;99939.69;5344229;27;20109;-78
2022/09/29 02:57:13;;;;;;;46.10;29.88;;;;;;;4.05;100.00;99935.50;5327393;27;20061;-78
2022/09/29 03:00:07;;;;;;;46.08;32.63;;;;;;;4.12;100.00;99936.69;5340777;27;20377;-79
2022/09/29 03:02:40;;;;;;;48.90;31.08;;;;;;;4.20;100.00;99943.16;5347082;27;20059;-78
2022/09/29 03:05:22;;;;;;;44.80;32.10;;;;;;;4.21;100.00;99937.75;5348719;27;20051;-78
2022/09/29 03:07:53;;;;;;;51.90;32.45;;;;;;;4.20;100.00;99943.16;5347893;27;20078;-78
2022/09/29 03:10:25;;;;;;;44.33;31.63;;;;;;;4.23;100.00;99943.75;5328854;27;20023;-79
2022/09/29 03:12:56;;;;;;;48.30;32.03;;;;;;;4.17;100.00;99938.94;5345937;27;20465;-79
2022/09/29 03:15:27;;;;;;;44.42;31.30;;;;;;;4.15;100.00;99939.09;5339631;27;20111;-79
2022/09/29 03:17:59;;;;;;;55.55;32.13;;;;;;;4.07;100.00;99940.66;5346765;27;20031;-79
2022/09/29 03:20:30;;;;;;;48.38;31.33;;;;;;;4.02;100.00;99935.75;5346632;27;20063;-79
2022/09/29 03:23:01;;;;;;;47.40;29.88;;;;;;;4.02;100.00;99938.38;5347588;27;20028;-79
2022/09/29 03:25:33;;;;;;;50.58;31.75;;;;;;;3.97;100.00;99933.47;5347099;27;20489;-79
2022/09/29 03:28:04;;;;;;;50.03;30.88;;;;;;;4.01;100.00;99939.34;5345975;27;20170;-79
2022/09/29 03:30:36;;;;;;;46.22;28.70;;;;;;;4.03;100.00;99924.22;5328620;27;20122;-79
2022/09/29 03:33:07;;;;;;;47.63;31.45;;;;;;;4.01;100.00;99936.69;5346158;27;20038;-79
2022/09/29 03:35:41;;;;;;;50.72;32.45;;;;;;;4.07;100.00;99933.56;5346885;27;20046;-79
2022/09/29 03:38:13;;;;;;;51.70;32.28;;;;;;;4.05;100.00;99935.50;5328421;27;20529;-79
2022/09/29 03:40:44;;;;;;;55.25;31.40;;;;;;;3.85;100.00;99931.81;5344857;27;20115;-79
2022/09/29 03:43:15;;;;;;;48.50;30.23;;;;;;;4.00;100.00;99940.31;5346636;27;20032;-79
2022/09/29 03:45:51;;;;;;;49.17;30.75;;;;;;;3.98;100.00;99936.97;5323919;27;20048;-79
2022/09/29 03:48:22;;;;;;;56.83;31.53;;;;;;;3.90;100.00;99940.19;5337718;27;20367;-79
2022/09/29 03:50:54;;;;;;;40.10;27.40;;;;;;;3.88;100.00;99936.84;5339230;27;20024;-79
2022/09/29 03:53:25;;;;;;;42.10;28.38;;;;;;;3.92;100.00;99945.34;5348054;27;20024;-79
2022/09/29 03:55:57;;;;;;;41.70;26.70;;;;;;;3.95;100.00;99926.66;5344038;27;20060;-79
2022/09/29 03:58:28;;;;;;;188.68;33.90;;;;;;;3.96;100.00;99936.22;5346067;27;20030;-78
2022/09/29 04:01:00;;;;;;;71.80;20.20;;;;;;;3.67;100.00;99949.09;5345300;27;20070;-79
2022/09/29 04:03:32;;;;;;;98.13;20.88;;;;;;;3.65;100.00;99951.84;5345953;27;20040;-78
2022/09/29 04:06:03;;;;;;;48.30;30.50;;;;;;;3.60;100.00;99949.56;5341585;27;20040;-79
2022/09/29 04:08:36;;;;;;;72.40;23.15;;;;;;;3.51;100.00;99945.00;5346160;27;20123;-79
2022/09/29 04:11:08;;;;;;;49.33;28.90;;;;;;;3.49;100.00;99951.34;5342775;27;20404;-78
2022/09/29 04:13:39;;;;;;;47.22;30.30;;;;;;;3.44;100.00;99956.13;5346321;27;20394;-79
2022/09/29 04:16:11;;;;;;;99.28;30.70;;;;;;;3.29;100.00;99951.06;5346315;27;20046;-79
2022/09/29 04:18:42;;;;;;;48.08;28.73;;;;;;;3.26;100.00;99959.25;5328250;27;20401;-79
2022/09/29 04:21:13;;;;;;;44.05;28.65;;;;;;;3.27;100.00;99949.53;5345558;27;20028;-79
2022/09/29 04:23:46;;;;;;;51.22;30.67;;;;;;;3.35;100.00;99961.16;5346009;27;20073;-79
2022/09/29 04:26:19;;;;;;;46.20;29.13;;;;;;;3.32;100.00;99960.56;5347414;27;20077;-78
2022/09/29 04:28:50;;;;;;;46.55;29.20;;;;;;;3.20;100.00;99965.78;5339759;27;20024;-79
2022/09/29 04:31:22;;;;;;;45.17;27.88;;;;;;;3.12;100.00;99967.34;5340340;27;20047;-79
2022/09/29 04:33:53;;;;;;;37.42;25.08;;;;;;;3.15;100.00;99975.84;5322867;27;20433;-79
2022/09/29 04:36:24;;;;;;;44.10;29.08;;;;;;;3.28;100.00;99965.22;5342601;27;20027;-79
2022/09/29 04:38:56;;;;;;;48.00;29.70;;;;;;;3.36;100.00;99968.09;5341749;27;20020;-79
2022/09/29 04:41:33;;;;;;;49.88;30.00;;;;;;;3.37;100.00;99968.97;5341212;27;20023;-78
2022/09/29 04:44:05;;;;;;;55.22;30.73;;;;;;;3.38;100.00;99967.97;5339276;27;20040;-79
2022/09/29 04:46:36;;;;;;;55.95;32.78;;;;;;;3.44;100.00;99970.16;5323842;27;20034;-79
2022/09/29 04:49:07;;;;;;;54.63;32.88;;;;;;;3.50;100.00;99980.22;5339304;27;20028;-79
2022/09/29 04:51:42;;;;;;;53.63;32.75;;;;;;;3.59;100.00;99979.53;5337346;27;20497;-79
2022/09/29 04:54:13;;;;;;;61.03;36.53;;;;;;;3.54;100.00;99980.81;5330090;27;20044;-79
2022/09/29 04:56:47;;;;;;;52.53;29.90;;;;;;;3.48;100.00;99968.13;5337567;27;20464;-79
2022/09/29 04:59:19;;;;;;;56.28;34.20;;;;;;;3.51;100.00;99981.91;5319463;27;20022;-78
2022/09/29 05:01:50;;;;;;;58.38;34.25;;;;;;;3.54;100.00;99976.41;5337943;27;20031;-79
2022/09/29 05:04:21;;;;;;;57.15;34.03;;;;;;;3.60;100.00;99977.72;5341700;27;20456;-79
2022/09/29 05:06:53;;;;;;;49.33;28.50;;;;;;;3.74;100.00;99989.84;5336062;27;20981;-79
2022/09/29 05:09:24;;;;;;;50.05;29.80;;;;;;;3.71;100.00;99984.81;5340637;27;23540;-78
2022/09/29 05:11:55;;;;;;;56.20;35.22;;;;;;;3.66;100.00;99995.69;5339336;27;20020;-78
2022/09/29 05:14:27;;;;;;;48.40;30.25;;;;;;;3.93;100.00;99999.81;5342900;27;20031;-79
2022/09/29 05:16:58;;;;;;;58.65;34.00;;;;;;;4.18;100.00;99993.44;5338522;27;20031;-78
2022/09/29 05:19:31;;;;;;;69.28;38.67;;;;;;;4.36;100.00;100004.31;5340895;27;20023;-79
2022/09/29 05:22:02;;;;;;;63.72;36.10;;;;;;;4.61;100.00;100002.31;5340617;27;20068;-79
2022/09/29 05:24:33;;;;;;;64.40;36.65;;;;;;;4.66;100.00;100006.31;5342216;27;20028;-78
2022/09/29 05:27:07;;;;;;;68.47;40.92;;;;;;;4.67;100.00;100005.31;5346969;27;20109;-78
2022/09/29 05:29:39;;;;;;;78.07;41.72;;;;;;;4.68;100.00;100009.66;5346131;27;20065;-79
2022/09/29 05:32:11;;;;;;;69.00;40.95;;;;;;;4.60;100.00;100012.06;5343553;27;20092;-79
2022/09/29 05:34:42;;;;;;;80.07;45.40;;;;;;;4.54;100.00;100010.75;5339360;27;20064;-79
2022/09/29 05:37:14;;;;;;;74.13;42.35;;;;;;;4.57;100.00;100016.75;5342191;27;20066;-79
2022/09/29 05:39:46;;;;;;;68.28;37.45;;;;;;;4.68;100.00;100012.28;5340505;27;20028;-79
2022/09/29 05:42:19;;;;;;;84.55;43.97;;;;;;;4.40;100.00;100012.81;5339132;27;20485;-79
2022/09/29 05:44:50;;;;;;;78.30;43.80;;;;;;;4.27;100.00;100015.63;5336480;27;20350;-79
2022/09/29 05:47:23;;;;;;;70.57;40.45;;;;;;;4.09;100.00;100018.75;5338409;27;20035;-78
2022/09/29 05:49:54;;;;;;;59.78;34.00;;;;;;;4.25;100.00;100012.25;5338292;27;20485;-79
2022/09/29 05:52:25;;;;;;;81.28;41.83;;;;;;;3.99;100.00;100023.06;5338028;27;20039;-79
2022/09/29 05:54:57;;;;;;;77.88;41.70;;;;;;;3.87;100.00;100024.84;5333737;27;20040;-80
2022/09/29 05:57:28;;;;;;;66.72;39.88;;;;;;;4.00;100.00;100026.53;5334195;27;20035;-79
2022/09/29 05:59:59;;;;;;;71.20;42.15;;;;;;;4.01;100.00;100030.88;5315852;27;20023;-79
2022/09/29 06:02:31;;;;;;;63.88;39.47;;;;;;;4.04;100.00;100028.00;5339492;27;20502;-79
2022/09/29 06:05:03;;;;;;;72.18;42.05;;;;;;;4.03;100.00;100034.22;5339061;27;20107;-79
2022/09/29 06:07:35;;;;;;;81.68;42.53;;;;;;;3.98;100.00;100032.78;5339128;27;20479;-79
2022/09/29 06:10:06;;;;;;;75.68;42.70;;;;;;;3.97;100.00;100039.00;5334232;27;20063;-79
2022/09/29 06:12:38;;;;;;;72.57;40.13;;;;;;;4.05;100.00;100027.88;5338010;27;20119;-79
2022/09/29 06:15:13;;;;;;;80.25;43.60;;;;;;;4.08;100.00;100038.16;5322337;28;20470;-79
2022/09/29 06:17:44;;;;;;;82.40;44.28;;;;;;;4.11;100.00;100035.28;5324944;28;20052;-79
2022/09/29 06:20:16;;;;;;;75.25;44.55;;;;;;;4.33;100.00;100042.38;5305848;27;20059;-79
2022/09/29 06:22:47;;;;;;;79.35;49.90;;;;;;;4.90;100.00;100040.44;5344429;27;20089;-79
2022/09/29 06:25:19;;;;;;;112.70;56.05;;;;;;;5.36;100.00;100038.41;5346598;27;20058;-79
2022/09/29 06:27:50;;;;;;;203.55;66.50;;;;;;;5.69;100.00;100047.13;5345817;27;20016;-79
2022/09/29 06:30:21;;;;;;;315.05;75.68;;;;;;;5.90;100.00;100039.16;5325882;27;20023;-79
2022/09/29 06:32:54;;;;;;;826.13;128.77;;;;;;;6.51;100.00;100048.06;5344047;27;20024;-78
2022/09/29 06:38:23;;;;;;;;;;;;;;;7.01;100.00;100055.94;5303657;28;20032;-79
2022/09/29 06:40:54;;;;;;;131.25;57.95;;;;;;;7.22;100.00;100066.44;5328631;28;19912;-80
2022/09/29 06:43:26;;;;;;;96.47;56.03;;;;;;;7.53;100.00;100071.59;5328155;28;20029;-80
2022/09/29 06:45:57;;;;;;;88.90;54.38;;;;;;;7.56;100.00;100073.97;5328410;27;20016;-81
2022/09/29 06:48:28;;;;;;;84.88;49.58;;;;;;;7.74;100.00;100068.75;5329871;27;20026;-81
2022/09/29 06:50:59;;;;;;;73.97;45.55;;;;;;;7.75;100.00;100076.59;5349759;27;20027;-81
2022/09/29 06:53:31;;;;;;;70.18;43.25;;;;;;;7.98;100.00;100078.91;5350227;27;20381;-81
2022/09/29 06:56:02;;;;;;;58.72;40.78;;;;;;;7.98;100.00;100078.06;5349818;27;20415;-82
2022/09/29 06:58:34;;;;;;;48.03;36.55;;;;;;;8.28;100.00;100080.47;5329144;27;20395;-81
2022/09/29 07:01:05;;;;;;;41.20;30.30;;;;;;;8.46;100.00;100080.56;5349742;27;20035;-85
2022/09/29 07:03:37;;;;;;;32.65;27.02;;;;;;;8.44;100.00;100087.03;5350052;27;20115;-82
2022/09/29 07:06:09;;;;;;;32.13;24.17;;;;;;;8.49;100.00;100082.94;5348957;27;20477;-82
2022/09/29 07:08:41;;;;;;;30.38;26.58;;;;;;;9.71;100.00;100094.09;5331050;27;20030;-82
2022/09/29 07:11:12;;;;;;;29.75;23.80;;;;;;;9.37;100.00;100090.31;5349910;27;20020;-83
2022/09/29 07:13:43;;;;;;;18.50;16.25;;;;;;;9.81;100.00;100098.31;5327954;27;20518;-82
2022/09/29 07:16:15;;;;;;;18.55;16.60;;;;;;;9.85;100.00;100090.84;5328827;28;20020;-83
2022/09/29 07:18:47;;;;;;;19.05;15.20;;;;;;;9.71;100.00;100097.63;5328140;28;20527;-82
2022/09/29 07:21:20;;;;;;;16.00;14.27;;;;;;;10.23;100.00;100107.41;5327967;28;20022;-81
2022/09/29 07:23:52;;;;;;;14.70;11.90;;;;;;;10.55;100.00;100112.13;5327585;28;20020;-81
2022/09/29 07:26:23;;;;;;;14.80;12.18;;;;;;;11.08;100.00;100106.59;5327761;27;20024;-82
2022/09/29 07:28:54;;;;;;;15.30;12.32;;;;;;;11.38;100.00;100107.84;5346163;27;35761;-83
2022/09/29 07:31:29;;;;;;;11.50;10.25;;;;;;;12.19;100.00;100106.13;5331093;27;20540;-83
2022/09/29 07:34:00;;;;;;;11.95;10.57;;;;;;;12.57;100.00;100111.69;5330118;27;20051;-83
2022/09/29 07:36:32;;;;;;;12.40;9.55;;;;;;;12.87;100.00;100111.91;5330085;27;20020;-82
2022/09/29 07:39:03;;;;;;;11.15;9.75;;;;;;;12.72;100.00;100100.25;5327339;28;20028;-81
2022/09/29 07:41:34;;;;;;;9.95;8.82;;;;;;;13.47;100.00;100098.84;5327541;28;20523;-84
2022/09/29 07:44:06;;;;;;;13.50;8.93;;;;;;;13.84;100.00;100095.31;5344838;27;20031;-85
2022/09/29 07:46:37;;;;;;;10.63;7.50;;;;;;;14.09;100.00;100101.25;5349819;27;20022;-84
2022/09/29 07:49:08;;;;;;;15.23;8.18;;;;;;;14.39;100.00;100093.22;5329872;27;20062;-82
2022/09/29 07:51:40;;;;;;;8.05;7.28;;;;;;;14.84;100.00;100091.34;5349329;27;20453;-86
2022/09/29 07:54:11;;;;;;;8.88;7.53;;;;;;;15.18;100.00;100091.72;5349252;27;20026;-84
2022/09/29 07:56:42;;;;;;;8.68;7.78;;;;;;;15.29;100.00;100107.34;5349663;27;20384;-83
2022/09/29 07:59:14;;;;;;;8.50;7.47;;;;;;;16.28;100.00;100109.22;5347529;27;20016;-83
2022/09/29 08:01:45;;;;;;;10.65;7.13;;;;;;;16.24;100.00;100106.09;5348260;27;20027;-83
2022/09/29 08:04:16;;;;;;;13.43;7.75;;;;;;;16.16;100.00;100108.91;5348614;27;20427;-83
2022/09/29 08:06:48;;;;;;;9.32;7.60;;;;;;;16.88;100.00;100112.22;5348692;27;20093;-83
2022/09/29 08:09:19;;;;;;;9.07;6.88;;;;;;;16.95;100.00;100106.84;5348649;27;20047;-82
2022/09/29 08:11:50;;;;;;;9.32;7.22;;;;;;;17.40;100.00;100117.97;5348637;27;20019;-82
2022/09/29 08:14:22;;;;;;;11.13;7.80;;;;;;;17.63;100.00;100119.44;5347372;27;20123;-83
2022/09/29 08:16:53;;;;;;;10.13;7.30;;;;;;;17.50;100.00;100122.97;5349430;27;20065;-82
2022/09/29 08:19:28;;;;;;;8.68;7.32;;;;;;;18.17;100.00;100120.31;5349286;27;20051;-82
2022/09/29 08:21:59;;;;;;;9.70;6.57;;;;;;;17.74;100.00;100126.91;5329794;27;20162;-83
2022/09/29 08:24:30;;;;;;;13.85;7.65;;;;;;;17.44;100.00;100126.47;5339771;27;20129;-83
2022/09/29 08:27:05;;;;;;;12.93;7.30;;;;;;;15.55;100.00;100125.59;5326915;28;20023;-82
2022/09/29 08:29:37;;;;;;;11.05;7.15;;;;;;;15.14;100.00;100128.88;5338044;27;20016;-81
2022/09/29 08:32:08;;;;;;;10.52;7.88;;;;;;;13.91;100.00;100136.47;5363230;27;20110;-81
2022/09/29 08:34:42;;;;;;;9.77;8.13;;;;;;;13.46;100.00;100134.66;5362969;27;20030;-81
2022/09/29 08:37:13;;;;;;;14.30;8.60;;;;;;;13.03;100.00;100149.28;5359194;27;20102;-81
2022/09/29 08:39:44;;;;;;;11.48;8.43;;;;;;;12.85;100.00;100148.72;5357428;27;20047;-80
2022/09/29 08:42:28;;;;;;;11.23;8.77;;;;;;;12.83;100.00;100145.34;5350719;27;20035;-81
2022/09/29 08:45:07;;;;;;;13.32;9.07;;;;;;;13.22;100.00;100156.03;5329109;27;20342;-81
2022/09/29 08:47:44;;;;;;;10.80;8.82;;;;;;;12.75;100.00;100153.44;5328059;27;20039;-81
2022/09/29 08:50:36;;;;;;;11.70;9.13;;;;;;;13.10;100.00;100143.25;5347177;27;20381;-81
2022/09/29 08:53:11;;;;;;;10.88;8.55;;;;;;;13.00;100.00;100156.84;5347444;27;20047;-82
2022/09/29 08:55:52;;;;;;;12.43;8.98;;;;;;;12.94;100.00;100150.34;5347506;27;20450;-82
2022/09/29 08:58:27;;;;;;;11.82;8.90;;;;;;;13.09;100.00;100162.97;5346717;27;20023;-82
2022/09/29 09:01:20;;;;;;;10.50;8.98;;;;;;;12.84;100.00;100157.75;5346680;27;20066;-82
2022/09/29 09:04:10;;;;;;;12.30;9.20;;;;;;;13.31;100.00;100161.38;5345565;27;20039;-81
2022/09/29 09:06:59;;;;;;;11.30;8.20;;;;;;;13.97;100.00;100161.72;5347893;27;20048;-81
2022/09/29 09:09:34;;;;;;;10.13;8.80;;;;;;;14.23;100.00;100163.16;5328398;27;20023;-81
2022/09/29 09:12:42;;;;;;;12.55;9.02;;;;;;;15.18;100.00;100153.50;5329102;27;20042;-81
2022/09/29 09:15:48;;;;;;;10.75;7.75;;;;;;;15.42;100.00;100161.22;5328121;27;20018;-82
2022/09/29 09:18:53;;;;;;;9.05;7.68;;;;;;;16.84;100.00;100177.47;5345629;27;20102;-82
2022/09/29 09:21:53;;;;;;;8.20;7.07;;;;;;;17.28;100.00;100177.03;5346582;27;20023;-82
2022/09/29 09:24:47;;;;;;;7.75;6.75;;;;;;;17.06;100.00;100172.78;5335145;27;20109;-82
2022/09/29 09:27:26;;;;;;;9.27;7.38;;;;;;;17.91;100.00;100174.06;5346429;27;20381;-82
2022/09/29 09:30:14;;;;;;;11.07;7.18;;;;;;;20.01;100.00;100169.38;5347434;27;20046;-82
2022/09/29 09:32:51;;;;;;;8.32;6.80;;;;;;;21.32;100.00;100178.19;5322666;27;20110;-82
2022/09/29 09:35:22;;;;;;;8.48;6.40;;;;;;;22.63;100.00;100171.94;5316993;27;20027;-82
2022/09/29 09:37:59;;;;;;;6.60;5.82;;;;;;;23.83;100.00;100167.75;5347181;27;20389;-82
2022/09/29 09:40:40;;;;;;;7.82;5.72;;;;;;;24.18;100.00;100169.41;5346291;27;20389;-82
2022/09/29 09:43:19;;;;;;;7.90;5.95;;;;;;;24.57;100.00;100175.72;5346789;27;20134;-83
2022/09/29 09:46:02;;;;;;;10.80;5.60;;;;;;;26.52;100.00;100171.38;5346625;27;20460;-82
2022/09/29 09:48:48;;;;;;;5.80;5.22;;;;;;;28.08;85.08;100172.41;5345766;27;20027;-83
2022/09/29 09:51:30;;;;;;;6.28;4.72;;;;;;;28.49;92.36;100183.31;5326215;27;20039;-82
2022/09/29 09:54:08;;;;;;;4.43;3.65;;;;;;;29.09;59.19;100180.66;5325101;28;20032;-83
2022/09/29 09:56:57;;;;;;;5.18;3.78;;;;;;;29.65;88.12;100181.44;5306540;28;20020;-83
2022/09/29 09:59:58;;;;;;;5.85;3.83;;;;;;;30.04;49.36;100186.91;5324805;28;20051;-83
2022/09/29 10:02:30;;;;;;;4.00;3.03;;;;;;;27.90;53.85;100174.56;5325580;27;20024;-83
2022/09/29 10:05:02;;;;;;;4.38;3.40;;;;;;;27.37;49.93;100176.72;5345578;27;20397;-83
2022/09/29 10:07:33;;;;;;;3.58;3.22;;;;;;;26.47;47.58;100182.28;5346407;27;20023;-83
2022/09/29 10:10:14;;;;;;;3.60;3.10;;;;;;;27.68;56.22;100187.69;5346362;27;20089;-83
2022/09/29 10:12:50;;;;;;;4.22;2.85;;;;;;;27.62;47.96;100175.94;5350394;27;20469;-83
2022/09/29 10:15:24;;;;;;;3.22;2.53;;;;;;;27.33;49.84;100181.91;5350276;27;20024;-83
2022/09/29 10:18:05;;;;;;;3.45;2.47;;;;;;;27.60;50.93;100177.31;5348514;27;20090;-83
2022/09/29 10:20:41;;;;;;;4.63;2.40;;;;;;;27.66;46.23;100182.50;5350679;27;20023;-83
2022/09/29 10:23:37;;;;;;;6.20;2.53;;;;;;;29.18;48.15;100181.72;5350357;27;20027;-83
2022/09/29 10:26:24;;;;;;;4.53;1.92;;;;;;;29.60;54.96;100182.28;5349879;27;20016;-83
2022/09/29 10:28:59;;;;;;;2.88;2.13;;;;;;;29.79;39.06;100183.28;5328672;28;20028;-83
2022/09/29 10:31:38;;;;;;;2.65;2.20;;;;;;;30.05;42.26;100194.06;5328932;28;20509;-83
2022/09/29 10:34:09;;;;;;;3.42;1.73;;;;;;;30.73;39.85;100195.03;5309648;28;20449;-83
2022/09/29 10:36:57;;;;;;;2.60;1.50;;;;;;;31.93;42.21;100193.97;5350043;27;20073;-83
2022/09/29 10:39:38;;;;;;;2.35;2.15;;;;;;;30.72;36.04;100190.66;5349999;27;20031;-83
2022/09/29 10:42:24;;;;;;;5.95;2.35;;;;;;;31.36;41.21;100196.72;5349739;27;20046;-84
2022/09/29 10:45:16;;;;;;;4.15;2.30;;;;;;;31.53;47.61;100188.00;5350302;27;20102;-83
2022/09/29 10:48:07;;;;;;;1.58;1.48;;;;;;;31.50;38.20;100196.84;5349713;27;20016;-83
2022/09/29 10:50:51;;;;;;;3.60;2.17;;;;;;;31.36;37.43;100190.41;5330931;27;20066;-83
2022/09/29 10:53:39;;;;;;;2.63;2.25;;;;;;;31.23;41.70;100191.97;5349244;27;20081;-82
2022/09/29 10:56:21;;;;;;;3.50;2.45;;;;;;;31.12;37.90;100187.72;5349383;27;20448;-83
2022/09/29 10:58:58;;;;;;;2.30;1.83;;;;;;;32.89;35.69;100195.28;5349187;27;20032;-84
2022/09/29 11:01:33;;;;;;;2.85;1.92;;;;;;;33.00;47.53;100195.88;5326158;28;20028;-83
2022/09/29 11:04:23;;;;;;;2.75;1.80;;;;;;;32.88;33.64;100198.34;5327437;28;20032;-82
2022/09/29 11:06:56;;;;;;;3.33;2.20;;;;;;;32.26;37.40;100187.63;5327497;28;20044;-83
2022/09/29 11:09:29;;;;;;;3.55;2.35;;;;;;;32.32;42.58;100201.03;5343613;27;20027;-83
2022/09/29 11:12:01;;;;;;;2.60;1.92;;;;;;;30.66;38.93;100202.84;5348935;27;20570;-83
2022/09/29 11:14:35;;;;;;;1.83;1.63;;;;;;;31.53;41.17;100196.25;5336827;27;20026;-83
2022/09/29 11:17:35;;;;;;;2.45;1.70;;;;;;;32.50;40.99;100191.03;5309064;28;20024;-83
2022/09/29 11:20:13;;;;;;;3.05;2.28;;;;;;;30.10;37.52;100191.28;5323314;28;20028;-83
2022/09/29 11:22:58;;;;;;;1.90;1.70;;;;;;;30.48;44.18;100196.16;5327908;27;20031;-83
2022/09/29 11:25:47;;;;;;;2.17;1.70;;;;;;;30.24;46.36;100196.09;5330148;27;20707;-82
2022/09/29 11:28:37;;;;;;;3.70;1.55;;;;;;;30.38;57.13;100197.06;5348425;27;20023;-83
2022/09/29 11:31:11;;;;;;;2.88;1.52;;;;;;;28.51;57.78;100194.81;5348713;27;20030;-83
2022/09/29 11:34:05;;;;;;;2.60;1.52;;;;;;;27.90;50.46;100195.69;5330452;27;20023;-83
2022/09/29 11:37:14;;;;;;;2.47;1.75;;;;;;;28.99;70.68;100194.41;5348869;27;20028;-83
2022/09/29 11:40:09;;;;;;;3.58;1.60;;;;;;;27.61;47.43;100181.66;5347446;27;20031;-83
2022/09/29 11:42:49;;;;;;;3.13;1.85;;;;;;;26.19;83.44;100197.94;5348116;27;20372;-82
2022/09/29 11:45:31;;;;;;;3.05;1.75;;;;;;;24.30;96.38;100197.38;5345642;27;20020;-82
2022/09/29 11:48:23;;;;;;;2.08;1.42;;;;;;;23.02;87.87;100199.41;5326987;28;20024;-82
2022/09/29 11:51:07;;;;;;;2.55;1.70;;;;;;;22.25;100.00;100200.38;5326859;28;20020;-82
2022/09/29 11:53:46;;;;;;;6.03;1.55;;;;;;;20.87;99.25;100194.78;5327065;28;20024;-82
2022/09/29 11:56:32;;;;;;;2.20;1.60;;;;;;;20.98;100.00;100198.63;5334551;27;20028;-82
2022/09/29 11:59:09;;;;;;;1.77;1.42;;;;;;;20.83;100.00;100201.72;5348170;27;20045;-82
2022/09/29 12:02:16;;;;;;;2.28;1.63;;;;;;;23.06;100.00;100202.50;5348172;27;20572;-82
2022/09/29 12:05:06;;;;;;;2.40;1.30;;;;;;;27.54;79.83;100198.34;5329460;27;20028;-82